sensor_id;sensor_type;location;lat;lon;timestamp;pressure;altitude;pressure_sealevel;temperature;humidity
54918;BME280;40818;50.562;7.454;2023-09-12T00:01:12;97410.78;;;21.97;83.21
54918;BME280;40818;50.562;7.454;2023-09-12T00:11:15;97416.41;;;21.79;84.94
54918;BME280;40818;50.562;7.454;2023-09-12T00:21:22;97421.84;;;21.63;85.70
54918;BME280;40818;50.562;7.454;2023-09-12T00:31:28;97409.34;;;21.57;86.47
54918;BME280;40818;50.562;7.454;2023-09-12T00:41:34;97413.53;;;21.43;88.45
54918;BME280;40818;50.562;7.454;2023-09-12T00:51:37;97405.50;;;21.36;88.57
54918;BME280;40818;50.562;7.454;2023-09-12T01:01:44;97390.09;;;21.25;90.05
54918;BME280;40818;50.562;7.454;2023-09-12T01:11:47;97400.06;;;21.14;90.80
54918;BME280;40818;50.562;7.454;2023-09-12T01:22:13;97392.22;;;21.06;92.55
54918;BME280;40818;50.562;7.454;2023-09-12T01:32:23;97387.16;;;20.96;92.66
54918;BME280;40818;50.562;7.454;2023-09-12T01:42:31;97384.56;;;20.88;93.75
54918;BME280;40818;50.562;7.454;2023-09-12T01:52:38;97381.81;;;20.82;94.06
54918;BME280;40818;50.562;7.454;2023-09-12T02:02:42;97373.31;;;20.71;94.70
54918;BME280;40818;50.562;7.454;2023-09-12T02:12:48;97374.00;;;20.57;95.92
54918;BME280;40818;50.562;7.454;2023-09-12T02:22:51;97371.06;;;20.52;96.66
54918;BME280;40818;50.562;7.454;2023-09-12T02:32:58;97371.47;;;20.40;97.39
54918;BME280;40818;50.562;7.454;2023-09-12T02:43:01;97388.44;;;20.38;97.01
54918;BME280;40818;50.562;7.454;2023-09-12T02:53:08;97388.28;;;20.31;97.40
54918;BME280;40818;50.562;7.454;2023-09-12T03:03:11;97380.13;;;20.09;97.80
54918;BME280;40818;50.562;7.454;2023-09-12T03:13:17;97372.59;;;19.90;98.56
54918;BME280;40818;50.562;7.454;2023-09-12T03:23:21;97371.97;;;19.80;98.19
54918;BME280;40818;50.562;7.454;2023-09-12T03:33:27;97369.81;;;19.67;98.43
54918;BME280;40818;50.562;7.454;2023-09-12T03:43:32;97359.97;;;19.44;99.25
54918;BME280;40818;50.562;7.454;2023-09-12T03:53:40;97366.88;;;19.28;100.00
54918;BME280;40818;50.562;7.454;2023-09-12T04:03:44;97357.81;;;19.23;100.00
54918;BME280;40818;50.562;7.454;2023-09-12T04:13:51;97352.91;;;19.12;100.00
54918;BME280;40818;50.562;7.454;2023-09-12T04:23:54;97350.75;;;18.99;100.00
54918;BME280;40818;50.562;7.454;2023-09-12T04:34:00;97362.06;;;18.91;100.00
54918;BME280;40818;50.562;7.454;2023-09-12T04:44:04;97343.47;;;18.68;100.00
54918;BME280;40818;50.562;7.454;2023-09-12T04:54:10;97342.25;;;18.62;100.00
54918;BME280;40818;50.562;7.454;2023-09-12T05:04:14;97337.44;;;18.41;100.00
54918;BME280;40818;50.562;7.454;2023-09-12T05:14:21;97326.41;;;18.29;100.00
54918;BME280;40818;50.562;7.454;2023-09-12T05:24:24;97301.84;;;17.96;100.00
54918;BME280;40818;50.562;7.454;2023-09-12T05:34:30;97329.22;;;17.93;100.00
54918;BME280;40818;50.562;7.454;2023-09-12T05:44:34;97349.88;;;18.22;100.00
54918;BME280;40818;50.562;7.454;2023-09-12T05:54:41;97359.19;;;18.51;100.00
54918;BME280;40818;50.562;7.454;2023-09-12T06:04:45;97379.78;;;18.72;100.00
54918;BME280;40818;50.562;7.454;2023-09-12T06:14:51;97391.28;;;18.80;100.00
54918;BME280;40818;50.562;7.454;2023-09-12T06:24:56;97416.81;;;18.87;100.00
54918;BME280;40818;50.562;7.454;2023-09-12T06:35:02;97400.06;;;18.97;100.00
54918;BME280;40818;50.562;7.454;2023-09-12T06:45:07;97386.13;;;19.13;100.00
54918;BME280;40818;50.562;7.454;2023-09-12T06:55:13;97407.19;;;19.37;100.00
54918;BME280;40818;50.562;7.454;2023-09-12T07:05:17;97402.88;;;19.69;100.00
54918;BME280;40818;50.562;7.454;2023-09-12T07:15:23;97393.50;;;19.91;100.00
54918;BME280;40818;50.562;7.454;2023-09-12T07:25:26;97388.16;;;20.16;100.00
54918;BME280;40818;50.562;7.454;2023-09-12T07:35:32;97408.38;;;20.40;100.00
54918;BME280;40818;50.562;7.454;2023-09-12T07:45:36;97415.63;;;20.78;100.00
54918;BME280;40818;50.562;7.454;2023-09-12T07:55:42;97419.41;;;21.07;100.00
54918;BME280;40818;50.562;7.454;2023-09-12T08:05:54;97403.91;;;21.50;100.00
54918;BME280;40818;50.562;7.454;2023-09-12T08:16:00;97409.16;;;21.96;98.91
54918;BME280;40818;50.562;7.454;2023-09-12T08:26:04;97422.41;;;22.41;97.47
54918;BME280;40818;50.562;7.454;2023-09-12T08:36:10;97409.81;;;22.95;95.28
54918;BME280;40818;50.562;7.454;2023-09-12T08:46:15;97409.16;;;23.51;91.58
54918;BME280;40818;50.562;7.454;2023-09-12T08:56:22;97424.97;;;23.66;92.06
54918;BME280;40818;50.562;7.454;2023-09-12T09:06:25;97433.81;;;23.51;91.72
54918;BME280;40818;50.562;7.454;2023-09-12T09:16:32;97433.09;;;23.64;91.08
54918;BME280;40818;50.562;7.454;2023-09-12T09:26:43;97441.00;;;23.36;93.75
54918;BME280;40818;50.562;7.454;2023-09-12T09:36:53;97434.56;;;23.89;91.54
54918;BME280;40818;50.562;7.454;2023-09-12T09:46:59;97432.28;;;24.49;88.07
54918;BME280;40818;50.562;7.454;2023-09-12T09:57:06;97434.34;;;25.02;85.04
54918;BME280;40818;50.562;7.454;2023-09-12T10:07:09;97419.28;;;25.22;84.07
54918;BME280;40818;50.562;7.454;2023-09-12T10:17:19;97424.44;;;25.51;84.89
54918;BME280;40818;50.562;7.454;2023-09-12T10:27:25;97427.50;;;25.95;82.29
54918;BME280;40818;50.562;7.454;2023-09-12T10:37:35;97431.19;;;25.94;80.89
54918;BME280;40818;50.562;7.454;2023-09-12T10:47:41;97421.78;;;26.11;81.74
54918;BME280;40818;50.562;7.454;2023-09-12T10:58:04;97414.63;;;26.05;80.80
54918;BME280;40818;50.562;7.454;2023-09-12T11:08:07;97428.72;;;26.12;79.07
54918;BME280;40818;50.562;7.454;2023-09-12T11:18:13;97427.94;;;26.05;80.02
54918;BME280;40818;50.562;7.454;2023-09-12T11:28:18;97443.13;;;26.63;76.71
54918;BME280;40818;50.562;7.454;2023-09-12T11:38:31;97429.47;;;27.05;73.34
54918;BME280;40818;50.562;7.454;2023-09-12T11:48:34;97449.38;;;26.96;72.28
54918;BME280;40818;50.562;7.454;2023-09-12T11:58:42;97436.44;;;27.06;71.98
54918;BME280;40818;50.562;7.454;2023-09-12T12:08:46;97427.50;;;27.83;71.55
54918;BME280;40818;50.562;7.454;2023-09-12T12:18:57;97426.41;;;28.90;65.25
54918;BME280;40818;50.562;7.454;2023-09-12T12:29:01;97412.31;;;29.13;63.07
54918;BME280;40818;50.562;7.454;2023-09-12T12:39:10;97408.41;;;30.17;58.47
54918;BME280;40818;50.562;7.454;2023-09-12T12:49:15;97407.16;;;29.30;61.38
54918;BME280;40818;50.562;7.454;2023-09-12T12:59:21;97398.84;;;28.22;64.07
54918;BME280;40818;50.562;7.454;2023-09-12T13:09:24;97406.78;;;27.59;66.82
54918;BME280;40818;50.562;7.454;2023-09-12T13:19:31;97396.28;;;27.01;69.85
54918;BME280;40818;50.562;7.454;2023-09-12T13:29:34;97395.25;;;26.56;71.37
54918;BME280;40818;50.562;7.454;2023-09-12T13:39:40;97375.03;;;26.87;72.54
54918;BME280;40818;50.562;7.454;2023-09-12T13:49:48;97365.97;;;27.02;69.41
54918;BME280;40818;50.562;7.454;2023-09-12T13:59:54;97365.38;;;26.93;71.19
54918;BME280;40818;50.562;7.454;2023-09-12T14:09:58;97357.66;;;27.17;68.83
54918;BME280;40818;50.562;7.454;2023-09-12T14:20:06;97361.66;;;27.01;69.29
54918;BME280;40818;50.562;7.454;2023-09-12T14:30:12;97357.63;;;26.91;68.57
54918;BME280;40818;50.562;7.454;2023-09-12T14:40:19;97347.03;;;26.85;68.39
54918;BME280;40818;50.562;7.454;2023-09-12T14:50:22;97334.78;;;26.77;68.39
54918;BME280;40818;50.562;7.454;2023-09-12T15:00:32;97311.53;;;26.91;66.43
54918;BME280;40818;50.562;7.454;2023-09-12T15:10:36;97300.50;;;26.49;67.49
54918;BME280;40818;50.562;7.454;2023-09-12T15:20:43;97302.19;;;26.43;67.91
54918;BME280;40818;50.562;7.454;2023-09-12T15:30:46;97294.47;;;26.28;68.20
54918;BME280;40818;50.562;7.454;2023-09-12T15:40:52;97288.63;;;26.06;68.74
54918;BME280;40818;50.562;7.454;2023-09-12T15:50:57;97277.91;;;25.41;70.33
54918;BME280;40818;50.562;7.454;2023-09-12T16:01:03;97264.41;;;25.02;72.14
54918;BME280;40818;50.562;7.454;2023-09-12T16:11:06;97274.59;;;24.78;73.84
54918;BME280;40818;50.562;7.454;2023-09-12T16:21:12;97280.63;;;24.45;75.53
54918;BME280;40818;50.562;7.454;2023-09-12T16:31:16;97302.59;;;24.26;76.25
54918;BME280;40818;50.562;7.454;2023-09-12T16:41:22;97330.88;;;24.05;77.93
54918;BME280;40818;50.562;7.454;2023-09-12T16:51:25;97332.56;;;23.84;79.10
54918;BME280;40818;50.562;7.454;2023-09-12T17:01:31;97338.59;;;23.72;79.57
54918;BME280;40818;50.562;7.454;2023-09-12T17:11:35;97305.03;;;23.50;81.73
54918;BME280;40818;50.562;7.454;2023-09-12T17:21:41;97284.91;;;23.28;82.81
54918;BME280;40818;50.562;7.454;2023-09-12T17:31:46;97260.34;;;22.91;86.19
54918;BME280;40818;50.562;7.454;2023-09-12T17:41:52;97284.91;;;22.41;92.57
54918;BME280;40818;50.562;7.454;2023-09-12T17:51:55;97278.06;;;22.17;93.27
54918;BME280;40818;50.562;7.454;2023-09-12T18:02:01;97262.88;;;22.04;94.55
54918;BME280;40818;50.562;7.454;2023-09-12T18:12:05;97251.78;;;21.79;97.74
54918;BME280;40818;50.562;7.454;2023-09-12T18:22:11;97321.84;;;21.75;98.31
54918;BME280;40818;50.562;7.454;2023-09-12T18:32:14;97325.31;;;21.75;99.61
54918;BME280;40818;50.562;7.454;2023-09-12T18:42:21;97335.03;;;21.60;100.00
54918;BME280;40818;50.562;7.454;2023-09-12T18:52:24;97382.59;;;21.37;100.00
54918;BME280;40818;50.562;7.454;2023-09-12T19:02:30;97408.69;;;20.37;100.00
54918;BME280;40818;50.562;7.454;2023-09-12T19:12:34;97376.50;;;20.10;100.00
54918;BME280;40818;50.562;7.454;2023-09-12T19:22:40;97364.34;;;19.93;100.00
54918;BME280;40818;50.562;7.454;2023-09-12T19:32:44;97369.31;;;19.63;100.00
54918;BME280;40818;50.562;7.454;2023-09-12T19:42:50;97426.41;;;19.79;100.00
54918;BME280;40818;50.562;7.454;2023-09-12T19:52:54;97451.28;;;19.68;100.00
54918;BME280;40818;50.562;7.454;2023-09-12T20:03:00;97439.44;;;19.56;100.00
54918;BME280;40818;50.562;7.454;2023-09-12T20:13:03;97406.84;;;19.57;100.00
54918;BME280;40818;50.562;7.454;2023-09-12T20:23:10;97409.78;;;19.62;100.00
54918;BME280;40818;50.562;7.454;2023-09-12T20:33:14;97407.50;;;19.67;100.00
54918;BME280;40818;50.562;7.454;2023-09-12T20:43:20;97436.81;;;19.81;100.00
54918;BME280;40818;50.562;7.454;2023-09-12T20:53:24;97425.28;;;19.82;100.00
54918;BME280;40818;50.562;7.454;2023-09-12T21:03:31;97386.44;;;19.67;100.00
54918;BME280;40818;50.562;7.454;2023-09-12T21:13:34;97421.16;;;19.71;100.00
54918;BME280;40818;50.562;7.454;2023-09-12T21:23:40;97448.94;;;19.73;100.00
54918;BME280;40818;50.562;7.454;2023-09-12T21:33:44;97434.81;;;19.66;100.00
54918;BME280;40818;50.562;7.454;2023-09-12T21:43:50;97419.34;;;19.55;100.00
54918;BME280;40818;50.562;7.454;2023-09-12T21:53:53;97408.47;;;19.50;100.00
54918;BME280;40818;50.562;7.454;2023-09-12T22:03:59;97420.03;;;19.49;100.00
54918;BME280;40818;50.562;7.454;2023-09-12T22:14:03;97416.53;;;19.32;100.00
54918;BME280;40818;50.562;7.454;2023-09-12T22:24:09;97406.50;;;19.10;100.00
54918;BME280;40818;50.562;7.454;2023-09-12T22:34:13;97399.44;;;19.03;100.00
54918;BME280;40818;50.562;7.454;2023-09-12T22:44:19;97406.81;;;18.99;100.00
54918;BME280;40818;50.562;7.454;2023-09-12T22:54:22;97397.91;;;18.92;100.00
54918;BME280;40818;50.562;7.454;2023-09-12T23:04:29;97401.16;;;18.86;100.00
54918;BME280;40818;50.562;7.454;2023-09-12T23:14:32;97413.63;;;18.75;100.00
54918;BME280;40818;50.562;7.454;2023-09-12T23:24:38;97416.34;;;18.57;100.00
54918;BME280;40818;50.562;7.454;2023-09-12T23:34:42;97421.78;;;18.21;100.00
54918;BME280;40818;50.562;7.454;2023-09-12T23:44:48;97430.94;;;18.17;100.00
54918;BME280;40818;50.562;7.454;2023-09-12T23:54:51;97436.34;;;18.16;100.00
